sensor_id;sensor_type;location;lat;lon;timestamp;P1;durP1;ratioP1;P2;durP2;ratioP2
30020;SDS011;16861;52.294;7.760;2023-05-14T00:33:11;7.32;;;4.30;;
30020;SDS011;16861;52.294;7.760;2023-05-14T00:35:37;9.73;;;5.35;;
30020;SDS011;16861;52.294;7.760;2023-05-14T00:38:04;5.43;;;4.10;;
30020;SDS011;16861;52.294;7.760;2023-05-14T00:40:30;8.70;;;5.28;;
30020;SDS011;16861;52.294;7.760;2023-05-14T00:42:56;5.65;;;4.22;;
30020;SDS011;16861;52.294;7.760;2023-05-14T00:45:23;7.03;;;4.68;;
30020;SDS011;16861;52.294;7.760;2023-05-14T00:47:49;6.68;;;4.53;;
30020;SDS011;16861;52.294;7.760;2023-05-14T00:50:16;7.03;;;4.60;;
30020;SDS011;16861;52.294;7.760;2023-05-14T00:52:43;8.80;;;4.60;;
30020;SDS011;16861;52.294;7.760;2023-05-14T00:55:09;6.45;;;4.30;;
30020;SDS011;16861;52.294;7.760;2023-05-14T00:57:41;8.02;;;4.78;;
30020;SDS011;16861;52.294;7.760;2023-05-14T01:00:08;7.32;;;4.68;;
30020;SDS011;16861;52.294;7.760;2023-05-14T01:02:35;6.72;;;4.35;;
30020;SDS011;16861;52.294;7.760;2023-05-14T01:05:01;8.05;;;4.65;;
30020;SDS011;16861;52.294;7.760;2023-05-14T01:10:16;4.88;;;4.15;;
30020;SDS011;16861;52.294;7.760;2023-05-14T01:15:40;5.35;;;3.55;;
30020;SDS011;16861;52.294;7.760;2023-05-14T01:18:10;5.03;;;3.53;;
30020;SDS011;16861;52.294;7.760;2023-05-14T01:20:38;3.67;;;3.15;;
30020;SDS011;16861;52.294;7.760;2023-05-14T01:23:05;5.80;;;3.05;;
30020;SDS011;16861;52.294;7.760;2023-05-14T01:25:31;4.40;;;2.83;;
30020;SDS011;16861;52.294;7.760;2023-05-14T01:30:35;3.85;;;3.20;;
30020;SDS011;16861;52.294;7.760;2023-05-14T01:33:14;3.63;;;2.88;;
30020;SDS011;16861;52.294;7.760;2023-05-14T01:35:43;7.65;;;3.08;;
30020;SDS011;16861;52.294;7.760;2023-05-14T01:38:11;8.95;;;3.13;;
30020;SDS011;16861;52.294;7.760;2023-05-14T01:40:39;4.32;;;3.42;;
30020;SDS011;16861;52.294;7.760;2023-05-14T01:43:07;4.15;;;3.55;;
30020;SDS011;16861;52.294;7.760;2023-05-14T01:45:34;4.25;;;3.67;;
30020;SDS011;16861;52.294;7.760;2023-05-14T01:48:01;7.50;;;4.03;;
30020;SDS011;16861;52.294;7.760;2023-05-14T01:50:27;6.55;;;4.20;;
30020;SDS011;16861;52.294;7.760;2023-05-14T01:52:54;6.95;;;4.35;;
30020;SDS011;16861;52.294;7.760;2023-05-14T01:55:22;9.52;;;5.25;;
30020;SDS011;16861;52.294;7.760;2023-05-14T01:57:51;7.75;;;4.60;;
30020;SDS011;16861;52.294;7.760;2023-05-14T02:00:18;8.88;;;4.95;;
30020;SDS011;16861;52.294;7.760;2023-05-14T02:02:46;6.00;;;5.38;;
30020;SDS011;16861;52.294;7.760;2023-05-14T02:05:12;7.07;;;5.18;;
30020;SDS011;16861;52.294;7.760;2023-05-14T02:07:39;6.05;;;5.45;;
30020;SDS011;16861;52.294;7.760;2023-05-14T02:10:05;12.02;;;5.82;;
30020;SDS011;16861;52.294;7.760;2023-05-14T02:12:32;7.30;;;5.78;;
30020;SDS011;16861;52.294;7.760;2023-05-14T02:14:59;7.20;;;5.40;;
30020;SDS011;16861;52.294;7.760;2023-05-14T02:17:25;8.35;;;5.65;;
30020;SDS011;16861;52.294;7.760;2023-05-14T02:19:51;11.02;;;6.25;;
30020;SDS011;16861;52.294;7.760;2023-05-14T02:22:18;6.95;;;6.03;;
30020;SDS011;16861;52.294;7.760;2023-05-14T02:24:44;9.55;;;5.88;;
30020;SDS011;16861;52.294;7.760;2023-05-14T02:27:10;9.27;;;5.78;;
30020;SDS011;16861;52.294;7.760;2023-05-14T02:29:38;8.40;;;5.93;;
30020;SDS011;16861;52.294;7.760;2023-05-14T02:32:04;7.15;;;5.97;;
30020;SDS011;16861;52.294;7.760;2023-05-14T02:34:31;7.00;;;5.93;;
30020;SDS011;16861;52.294;7.760;2023-05-14T02:36:59;6.47;;;5.57;;
30020;SDS011;16861;52.294;7.760;2023-05-14T02:39:26;9.10;;;6.07;;
30020;SDS011;16861;52.294;7.760;2023-05-14T02:41:52;11.38;;;6.70;;
30020;SDS011;16861;52.294;7.760;2023-05-14T02:44:18;8.73;;;6.22;;
30020;SDS011;16861;52.294;7.760;2023-05-14T02:46:45;8.65;;;6.78;;
30020;SDS011;16861;52.294;7.760;2023-05-14T02:49:11;8.30;;;7.40;;
30020;SDS011;16861;52.294;7.760;2023-05-14T02:51:37;11.18;;;6.78;;
30020;SDS011;16861;52.294;7.760;2023-05-14T02:54:04;10.45;;;6.50;;
30020;SDS011;16861;52.294;7.760;2023-05-14T02:56:31;11.20;;;6.60;;
30020;SDS011;16861;52.294;7.760;2023-05-14T02:58:57;9.60;;;6.43;;
30020;SDS011;16861;52.294;7.760;2023-05-14T03:01:24;7.38;;;6.60;;
30020;SDS011;16861;52.294;7.760;2023-05-14T03:03:51;10.18;;;6.72;;
30020;SDS011;16861;52.294;7.760;2023-05-14T03:06:17;11.10;;;6.85;;
30020;SDS011;16861;52.294;7.760;2023-05-14T03:08:43;8.80;;;6.70;;
30020;SDS011;16861;52.294;7.760;2023-05-14T03:11:10;7.00;;;6.13;;
30020;SDS011;16861;52.294;7.760;2023-05-14T03:13:37;6.60;;;5.90;;
30020;SDS011;16861;52.294;7.760;2023-05-14T03:16:03;8.55;;;5.65;;
30020;SDS011;16861;52.294;7.760;2023-05-14T03:18:29;7.03;;;5.90;;
30020;SDS011;16861;52.294;7.760;2023-05-14T03:20:58;5.47;;;4.97;;
30020;SDS011;16861;52.294;7.760;2023-05-14T03:23:24;8.38;;;4.80;;
30020;SDS011;16861;52.294;7.760;2023-05-14T03:25:51;8.40;;;5.35;;
30020;SDS011;16861;52.294;7.760;2023-05-14T03:28:17;7.65;;;5.10;;
30020;SDS011;16861;52.294;7.760;2023-05-14T03:30:44;6.78;;;4.68;;
30020;SDS011;16861;52.294;7.760;2023-05-14T03:33:10;8.50;;;4.80;;
30020;SDS011;16861;52.294;7.760;2023-05-14T03:35:37;4.80;;;4.35;;
30020;SDS011;16861;52.294;7.760;2023-05-14T03:38:03;6.28;;;4.03;;
30020;SDS011;16861;52.294;7.760;2023-05-14T03:40:30;7.18;;;5.22;;
30020;SDS011;16861;52.294;7.760;2023-05-14T03:42:56;5.10;;;4.00;;
30020;SDS011;16861;52.294;7.760;2023-05-14T03:45:22;5.13;;;4.22;;
30020;SDS011;16861;52.294;7.760;2023-05-14T03:47:49;5.20;;;4.22;;
30020;SDS011;16861;52.294;7.760;2023-05-14T03:50:15;5.55;;;3.92;;
30020;SDS011;16861;52.294;7.760;2023-05-14T03:52:42;4.72;;;3.88;;
30020;SDS011;16861;52.294;7.760;2023-05-14T03:55:09;5.25;;;3.65;;
30020;SDS011;16861;52.294;7.760;2023-05-14T03:57:35;5.05;;;4.03;;
30020;SDS011;16861;52.294;7.760;2023-05-14T04:00:05;8.43;;;3.88;;
30020;SDS011;16861;52.294;7.760;2023-05-14T04:02:32;6.18;;;4.43;;
30020;SDS011;16861;52.294;7.760;2023-05-14T04:04:58;5.95;;;4.07;;
30020;SDS011;16861;52.294;7.760;2023-05-14T04:07:25;5.43;;;3.88;;
30020;SDS011;16861;52.294;7.760;2023-05-14T04:09:51;8.98;;;4.80;;
30020;SDS011;16861;52.294;7.760;2023-05-14T04:12:17;5.07;;;4.30;;
30020;SDS011;16861;52.294;7.760;2023-05-14T04:14:44;6.93;;;4.40;;
30020;SDS011;16861;52.294;7.760;2023-05-14T04:17:10;12.02;;;5.00;;
30020;SDS011;16861;52.294;7.760;2023-05-14T04:19:37;7.05;;;5.13;;
30020;SDS011;16861;52.294;7.760;2023-05-14T04:22:04;5.55;;;3.95;;
30020;SDS011;16861;52.294;7.760;2023-05-14T04:24:30;8.55;;;4.80;;
30020;SDS011;16861;52.294;7.760;2023-05-14T04:26:57;5.07;;;3.85;;
30020;SDS011;16861;52.294;7.760;2023-05-14T04:29:23;6.07;;;4.47;;
30020;SDS011;16861;52.294;7.760;2023-05-14T04:31:49;5.93;;;4.65;;
30020;SDS011;16861;52.294;7.760;2023-05-14T04:34:16;7.32;;;5.07;;
30020;SDS011;16861;52.294;7.760;2023-05-14T04:36:42;7.82;;;5.10;;
30020;SDS011;16861;52.294;7.760;2023-05-14T04:39:08;10.70;;;5.00;;
30020;SDS011;16861;52.294;7.760;2023-05-14T04:41:37;5.70;;;4.78;;
30020;SDS011;16861;52.294;7.760;2023-05-14T04:44:04;6.75;;;3.95;;
30020;SDS011;16861;52.294;7.760;2023-05-14T04:46:30;4.53;;;4.00;;
30020;SDS011;16861;52.294;7.760;2023-05-14T04:48:56;10.88;;;4.82;;
30020;SDS011;16861;52.294;7.760;2023-05-14T04:51:23;6.80;;;4.55;;
30020;SDS011;16861;52.294;7.760;2023-05-14T04:53:49;6.18;;;4.05;;
30020;SDS011;16861;52.294;7.760;2023-05-14T04:56:16;7.22;;;4.05;;
30020;SDS011;16861;52.294;7.760;2023-05-14T04:58:42;7.20;;;4.38;;
30020;SDS011;16861;52.294;7.760;2023-05-14T05:01:08;8.48;;;4.00;;
30020;SDS011;16861;52.294;7.760;2023-05-14T05:03:35;4.90;;;3.90;;
30020;SDS011;16861;52.294;7.760;2023-05-14T05:06:02;7.78;;;4.53;;
30020;SDS011;16861;52.294;7.760;2023-05-14T05:08:28;6.30;;;4.10;;
30020;SDS011;16861;52.294;7.760;2023-05-14T05:10:55;4.75;;;4.03;;
30020;SDS011;16861;52.294;7.760;2023-05-14T05:13:22;5.65;;;3.70;;
30020;SDS011;16861;52.294;7.760;2023-05-14T05:15:48;5.47;;;3.85;;
30020;SDS011;16861;52.294;7.760;2023-05-14T05:18:14;4.40;;;3.25;;
30020;SDS011;16861;52.294;7.760;2023-05-14T05:20:41;7.20;;;3.95;;
30020;SDS011;16861;52.294;7.760;2023-05-14T05:23:07;7.38;;;3.70;;
30020;SDS011;16861;52.294;7.760;2023-05-14T05:25:33;4.15;;;3.00;;
30020;SDS011;16861;52.294;7.760;2023-05-14T05:28:00;3.28;;;2.95;;
30020;SDS011;16861;52.294;7.760;2023-05-14T05:30:26;5.13;;;2.78;;
30020;SDS011;16861;52.294;7.760;2023-05-14T05:32:53;5.82;;;3.47;;
30020;SDS011;16861;52.294;7.760;2023-05-14T05:35:19;4.03;;;3.58;;
30020;SDS011;16861;52.294;7.760;2023-05-14T05:37:45;4.75;;;3.53;;
30020;SDS011;16861;52.294;7.760;2023-05-14T05:40:12;6.50;;;3.60;;
30020;SDS011;16861;52.294;7.760;2023-05-14T05:42:39;6.43;;;3.55;;
30020;SDS011;16861;52.294;7.760;2023-05-14T05:45:06;4.43;;;3.80;;
30020;SDS011;16861;52.294;7.760;2023-05-14T05:47:33;5.07;;;3.15;;
30020;SDS011;16861;52.294;7.760;2023-05-14T05:49:59;4.40;;;3.95;;
30020;SDS011;16861;52.294;7.760;2023-05-14T05:52:27;4.07;;;3.65;;
30020;SDS011;16861;52.294;7.760;2023-05-14T05:54:54;5.38;;;3.47;;
30020;SDS011;16861;52.294;7.760;2023-05-14T05:57:20;5.55;;;3.70;;
30020;SDS011;16861;52.294;7.760;2023-05-14T05:59:51;5.28;;;3.67;;
30020;SDS011;16861;52.294;7.760;2023-05-14T06:02:18;4.82;;;3.83;;
30020;SDS011;16861;52.294;7.760;2023-05-14T06:04:44;3.38;;;3.08;;
30020;SDS011;16861;52.294;7.760;2023-05-14T06:07:11;3.42;;;3.05;;
30020;SDS011;16861;52.294;7.760;2023-05-14T06:09:37;6.38;;;3.10;;
30020;SDS011;16861;52.294;7.760;2023-05-14T06:12:04;5.40;;;3.53;;
30020;SDS011;16861;52.294;7.760;2023-05-14T06:14:31;5.97;;;3.40;;
30020;SDS011;16861;52.294;7.760;2023-05-14T06:16:57;4.10;;;3.40;;
30020;SDS011;16861;52.294;7.760;2023-05-14T06:19:23;4.00;;;3.25;;
30020;SDS011;16861;52.294;7.760;2023-05-14T06:21:50;4.78;;;3.22;;
30020;SDS011;16861;52.294;7.760;2023-05-14T06:24:16;3.38;;;3.08;;
30020;SDS011;16861;52.294;7.760;2023-05-14T06:26:45;4.28;;;3.47;;
30020;SDS011;16861;52.294;7.760;2023-05-14T06:29:11;3.65;;;3.35;;
30020;SDS011;16861;52.294;7.760;2023-05-14T06:31:37;5.75;;;3.67;;
30020;SDS011;16861;52.294;7.760;2023-05-14T06:34:04;5.03;;;3.10;;
30020;SDS011;16861;52.294;7.760;2023-05-14T06:36:30;3.90;;;3.55;;
30020;SDS011;16861;52.294;7.760;2023-05-14T06:38:59;3.33;;;2.90;;
30020;SDS011;16861;52.294;7.760;2023-05-14T06:41:26;3.63;;;3.22;;
30020;SDS011;16861;52.294;7.760;2023-05-14T06:43:52;3.90;;;3.47;;
30020;SDS011;16861;52.294;7.760;2023-05-14T06:46:19;4.30;;;3.25;;
30020;SDS011;16861;52.294;7.760;2023-05-14T06:48:46;3.58;;;3.28;;
30020;SDS011;16861;52.294;7.760;2023-05-14T06:51:12;4.78;;;3.70;;
30020;SDS011;16861;52.294;7.760;2023-05-14T06:53:39;5.07;;;3.05;;
30020;SDS011;16861;52.294;7.760;2023-05-14T06:56:06;4.88;;;3.60;;
30020;SDS011;16861;52.294;7.760;2023-05-14T06:58:33;3.95;;;3.55;;
30020;SDS011;16861;52.294;7.760;2023-05-14T07:00:59;3.35;;;3.05;;
30020;SDS011;16861;52.294;7.760;2023-05-14T07:03:26;3.53;;;3.22;;
30020;SDS011;16861;52.294;7.760;2023-05-14T07:05:54;3.50;;;3.20;;
30020;SDS011;16861;52.294;7.760;2023-05-14T07:08:20;3.05;;;2.85;;
30020;SDS011;16861;52.294;7.760;2023-05-14T07:10:47;6.07;;;2.90;;
30020;SDS011;16861;52.294;7.760;2023-05-14T07:13:14;4.03;;;2.97;;
30020;SDS011;16861;52.294;7.760;2023-05-14T07:15:40;2.90;;;2.60;;
30020;SDS011;16861;52.294;7.760;2023-05-14T07:18:07;5.20;;;2.97;;
30020;SDS011;16861;52.294;7.760;2023-05-14T07:20:34;3.80;;;2.78;;
30020;SDS011;16861;52.294;7.760;2023-05-14T07:23:00;3.10;;;2.83;;
30020;SDS011;16861;52.294;7.760;2023-05-14T07:25:30;3.78;;;3.15;;
30020;SDS011;16861;52.294;7.760;2023-05-14T07:27:57;3.50;;;2.78;;
30020;SDS011;16861;52.294;7.760;2023-05-14T07:30:24;4.55;;;2.50;;
30020;SDS011;16861;52.294;7.760;2023-05-14T07:32:51;4.00;;;2.75;;
30020;SDS011;16861;52.294;7.760;2023-05-14T07:35:18;2.85;;;2.63;;
30020;SDS011;16861;52.294;7.760;2023-05-14T07:37:44;4.18;;;2.60;;
30020;SDS011;16861;52.294;7.760;2023-05-14T07:40:11;4.93;;;2.90;;
30020;SDS011;16861;52.294;7.760;2023-05-14T07:42:44;2.92;;;2.60;;
30020;SDS011;16861;52.294;7.760;2023-05-14T07:45:11;4.45;;;2.75;;
30020;SDS011;16861;52.294;7.760;2023-05-14T07:47:37;2.97;;;2.67;;
30020;SDS011;16861;52.294;7.760;2023-05-14T07:50:04;2.97;;;2.65;;
30020;SDS011;16861;52.294;7.760;2023-05-14T07:52:31;2.72;;;2.50;;
30020;SDS011;16861;52.294;7.760;2023-05-14T07:54:58;2.42;;;2.22;;
30020;SDS011;16861;52.294;7.760;2023-05-14T07:57:26;3.90;;;2.65;;
30020;SDS011;16861;52.294;7.760;2023-05-14T07:59:53;2.67;;;2.47;;
30020;SDS011;16861;52.294;7.760;2023-05-14T08:02:19;2.92;;;2.63;;
30020;SDS011;16861;52.294;7.760;2023-05-14T08:04:46;2.75;;;2.30;;
30020;SDS011;16861;52.294;7.760;2023-05-14T08:07:13;3.42;;;2.28;;
30020;SDS011;16861;52.294;7.760;2023-05-14T08:09:39;3.38;;;2.10;;
30020;SDS011;16861;52.294;7.760;2023-05-14T08:12:06;2.95;;;2.45;;
30020;SDS011;16861;52.294;7.760;2023-05-14T08:14:33;2.70;;;2.35;;
30020;SDS011;16861;52.294;7.760;2023-05-14T08:17:00;6.97;;;3.38;;
30020;SDS011;16861;52.294;7.760;2023-05-14T08:19:26;4.30;;;3.35;;
30020;SDS011;16861;52.294;7.760;2023-05-14T08:21:53;4.20;;;3.25;;
30020;SDS011;16861;52.294;7.760;2023-05-14T08:24:20;4.18;;;3.10;;
30020;SDS011;16861;52.294;7.760;2023-05-14T08:26:47;3.45;;;3.00;;
30020;SDS011;16861;52.294;7.760;2023-05-14T08:29:13;7.80;;;3.50;;
30020;SDS011;16861;52.294;7.760;2023-05-14T08:31:42;3.80;;;3.10;;
30020;SDS011;16861;52.294;7.760;2023-05-14T08:34:08;4.18;;;2.92;;
30020;SDS011;16861;52.294;7.760;2023-05-14T08:36:35;3.40;;;2.58;;
30020;SDS011;16861;52.294;7.760;2023-05-14T08:39:03;4.20;;;3.17;;
30020;SDS011;16861;52.294;7.760;2023-05-14T08:41:29;3.00;;;2.60;;
30020;SDS011;16861;52.294;7.760;2023-05-14T08:46:53;2.13;;;1.92;;
30020;SDS011;16861;52.294;7.760;2023-05-14T08:49:36;2.17;;;1.85;;
30020;SDS011;16861;52.294;7.760;2023-05-14T08:52:06;2.00;;;1.80;;
30020;SDS011;16861;52.294;7.760;2023-05-14T08:54:34;2.47;;;1.98;;
30020;SDS011;16861;52.294;7.760;2023-05-14T08:57:04;2.45;;;2.25;;
30020;SDS011;16861;52.294;7.760;2023-05-14T08:59:33;1.90;;;1.77;;
30020;SDS011;16861;52.294;7.760;2023-05-14T09:02:00;1.90;;;1.75;;
30020;SDS011;16861;52.294;7.760;2023-05-14T09:04:28;2.22;;;2.03;;
30020;SDS011;16861;52.294;7.760;2023-05-14T09:06:56;2.53;;;2.03;;
30020;SDS011;16861;52.294;7.760;2023-05-14T09:09:26;2.10;;;1.90;;
30020;SDS011;16861;52.294;7.760;2023-05-14T09:11:53;2.35;;;2.05;;
30020;SDS011;16861;52.294;7.760;2023-05-14T09:14:21;1.77;;;1.67;;
30020;SDS011;16861;52.294;7.760;2023-05-14T09:16:49;2.25;;;1.80;;
30020;SDS011;16861;52.294;7.760;2023-05-14T09:19:17;2.47;;;1.70;;
30020;SDS011;16861;52.294;7.760;2023-05-14T09:21:47;2.72;;;1.77;;
30020;SDS011;16861;52.294;7.760;2023-05-14T09:24:18;1.83;;;1.60;;
30020;SDS011;16861;52.294;7.760;2023-05-14T09:26:50;1.70;;;1.60;;
30020;SDS011;16861;52.294;7.760;2023-05-14T09:29:18;4.45;;;1.73;;
30020;SDS011;16861;52.294;7.760;2023-05-14T09:31:46;3.47;;;1.75;;
30020;SDS011;16861;52.294;7.760;2023-05-14T09:34:33;1.88;;;1.77;;
30020;SDS011;16861;52.294;7.760;2023-05-14T09:37:03;1.80;;;1.70;;
30020;SDS011;16861;52.294;7.760;2023-05-14T09:39:32;2.22;;;2.03;;
30020;SDS011;16861;52.294;7.760;2023-05-14T09:42:01;2.25;;;2.05;;
30020;SDS011;16861;52.294;7.760;2023-05-14T09:44:28;2.13;;;1.92;;
30020;SDS011;16861;52.294;7.760;2023-05-14T09:46:55;2.03;;;1.83;;
30020;SDS011;16861;52.294;7.760;2023-05-14T09:49:22;2.20;;;2.00;;
30020;SDS011;16861;52.294;7.760;2023-05-14T09:51:48;2.88;;;1.90;;
30020;SDS011;16861;52.294;7.760;2023-05-14T09:54:15;2.05;;;1.85;;
30020;SDS011;16861;52.294;7.760;2023-05-14T09:56:42;2.25;;;2.05;;
30020;SDS011;16861;52.294;7.760;2023-05-14T09:59:10;3.20;;;2.28;;
30020;SDS011;16861;52.294;7.760;2023-05-14T10:01:37;2.30;;;2.10;;
30020;SDS011;16861;52.294;7.760;2023-05-14T10:04:05;2.17;;;1.75;;
30020;SDS011;16861;52.294;7.760;2023-05-14T10:06:35;2.65;;;2.17;;
30020;SDS011;16861;52.294;7.760;2023-05-14T10:09:03;3.78;;;2.00;;
30020;SDS011;16861;52.294;7.760;2023-05-14T10:11:34;2.72;;;1.85;;
30020;SDS011;16861;52.294;7.760;2023-05-14T10:14:07;2.47;;;2.00;;
30020;SDS011;16861;52.294;7.760;2023-05-14T10:16:40;1.83;;;1.65;;
30020;SDS011;16861;52.294;7.760;2023-05-14T10:19:12;2.75;;;1.70;;
30020;SDS011;16861;52.294;7.760;2023-05-14T10:21:44;1.92;;;1.83;;
30020;SDS011;16861;52.294;7.760;2023-05-14T10:24:12;2.10;;;1.75;;
30020;SDS011;16861;52.294;7.760;2023-05-14T10:26:40;2.63;;;2.00;;
30020;SDS011;16861;52.294;7.760;2023-05-14T10:29:10;1.65;;;1.55;;
30020;SDS011;16861;52.294;7.760;2023-05-14T10:31:50;2.10;;;1.55;;
30020;SDS011;16861;52.294;7.760;2023-05-14T10:37:09;1.73;;;1.52;;
30020;SDS011;16861;52.294;7.760;2023-05-14T10:39:40;1.95;;;1.42;;
30020;SDS011;16861;52.294;7.760;2023-05-14T10:42:17;1.92;;;1.70;;
30020;SDS011;16861;52.294;7.760;2023-05-14T10:44:47;1.60;;;1.50;;
30020;SDS011;16861;52.294;7.760;2023-05-14T10:47:17;4.07;;;1.83;;
30020;SDS011;16861;52.294;7.760;2023-05-14T10:49:44;3.85;;;1.60;;
30020;SDS011;16861;52.294;7.760;2023-05-14T10:52:17;2.47;;;1.80;;
30020;SDS011;16861;52.294;7.760;2023-05-14T10:54:55;1.83;;;1.60;;
30020;SDS011;16861;52.294;7.760;2023-05-14T10:57:27;2.20;;;1.63;;
30020;SDS011;16861;52.294;7.760;2023-05-14T10:59:56;2.22;;;1.85;;
30020;SDS011;16861;52.294;7.760;2023-05-14T11:02:25;1.98;;;1.58;;
30020;SDS011;16861;52.294;7.760;2023-05-14T11:07:36;1.60;;;1.27;;
30020;SDS011;16861;52.294;7.760;2023-05-14T11:10:09;1.50;;;1.40;;
30020;SDS011;16861;52.294;7.760;2023-05-14T11:12:38;1.52;;;1.40;;
30020;SDS011;16861;52.294;7.760;2023-05-14T11:15:06;1.67;;;1.48;;
30020;SDS011;16861;52.294;7.760;2023-05-14T11:17:35;2.40;;;1.60;;
30020;SDS011;16861;52.294;7.760;2023-05-14T11:20:03;1.67;;;1.50;;
30020;SDS011;16861;52.294;7.760;2023-05-14T11:22:33;1.95;;;1.30;;
30020;SDS011;16861;52.294;7.760;2023-05-14T11:25:00;1.75;;;1.40;;
30020;SDS011;16861;52.294;7.760;2023-05-14T11:27:27;1.40;;;1.30;;
30020;SDS011;16861;52.294;7.760;2023-05-14T11:29:54;1.42;;;1.20;;
30020;SDS011;16861;52.294;7.760;2023-05-14T11:32:21;1.65;;;1.45;;
30020;SDS011;16861;52.294;7.760;2023-05-14T11:34:48;1.65;;;1.40;;
30020;SDS011;16861;52.294;7.760;2023-05-14T11:37:15;2.05;;;1.50;;
30020;SDS011;16861;52.294;7.760;2023-05-14T11:39:45;2.08;;;1.67;;
30020;SDS011;16861;52.294;7.760;2023-05-14T11:42:14;1.80;;;1.48;;
30020;SDS011;16861;52.294;7.760;2023-05-14T11:44:42;2.20;;;1.60;;
30020;SDS011;16861;52.294;7.760;2023-05-14T11:47:09;1.70;;;1.55;;
30020;SDS011;16861;52.294;7.760;2023-05-14T11:49:36;3.42;;;1.50;;
30020;SDS011;16861;52.294;7.760;2023-05-14T11:52:04;1.60;;;1.17;;
30020;SDS011;16861;52.294;7.760;2023-05-14T11:54:32;1.48;;;1.38;;
30020;SDS011;16861;52.294;7.760;2023-05-14T11:57:02;3.17;;;1.60;;
30020;SDS011;16861;52.294;7.760;2023-05-14T11:59:36;1.75;;;1.45;;
30020;SDS011;16861;52.294;7.760;2023-05-14T12:02:03;2.80;;;1.70;;
30020;SDS011;16861;52.294;7.760;2023-05-14T12:04:31;2.30;;;1.55;;
30020;SDS011;16861;52.294;7.760;2023-05-14T12:06:58;1.65;;;1.55;;
30020;SDS011;16861;52.294;7.760;2023-05-14T12:09:25;1.25;;;1.15;;
30020;SDS011;16861;52.294;7.760;2023-05-14T12:11:52;1.58;;;1.40;;
30020;SDS011;16861;52.294;7.760;2023-05-14T12:14:20;1.70;;;1.50;;
30020;SDS011;16861;52.294;7.760;2023-05-14T12:16:48;2.80;;;1.23;;
30020;SDS011;16861;52.294;7.760;2023-05-14T12:19:16;1.60;;;1.50;;
30020;SDS011;16861;52.294;7.760;2023-05-14T12:21:46;2.63;;;1.50;;
30020;SDS011;16861;52.294;7.760;2023-05-14T12:24:14;1.50;;;1.40;;
30020;SDS011;16861;52.294;7.760;2023-05-14T12:26:43;2.50;;;1.92;;
30020;SDS011;16861;52.294;7.760;2023-05-14T12:29:11;1.98;;;1.77;;
30020;SDS011;16861;52.294;7.760;2023-05-14T12:34:17;2.35;;;1.67;;
30020;SDS011;16861;52.294;7.760;2023-05-14T12:36:44;4.40;;;1.50;;
30020;SDS011;16861;52.294;7.760;2023-05-14T12:39:10;3.65;;;1.73;;
30020;SDS011;16861;52.294;7.760;2023-05-14T12:41:37;2.75;;;1.77;;
30020;SDS011;16861;52.294;7.760;2023-05-14T12:44:04;2.47;;;1.58;;
30020;SDS011;16861;52.294;7.760;2023-05-14T12:46:31;1.70;;;1.60;;
30020;SDS011;16861;52.294;7.760;2023-05-14T12:48:59;2.63;;;1.83;;
30020;SDS011;16861;52.294;7.760;2023-05-14T12:51:26;1.92;;;1.70;;
30020;SDS011;16861;52.294;7.760;2023-05-14T12:53:54;1.67;;;1.58;;
30020;SDS011;16861;52.294;7.760;2023-05-14T12:56:21;1.88;;;1.67;;
30020;SDS011;16861;52.294;7.760;2023-05-14T12:58:53;2.38;;;1.67;;
30020;SDS011;16861;52.294;7.760;2023-05-14T13:01:21;1.80;;;1.35;;
30020;SDS011;16861;52.294;7.760;2023-05-14T13:03:49;1.77;;;1.67;;
30020;SDS011;16861;52.294;7.760;2023-05-14T13:06:16;1.63;;;1.48;;
30020;SDS011;16861;52.294;7.760;2023-05-14T13:08:42;3.03;;;1.70;;
30020;SDS011;16861;52.294;7.760;2023-05-14T13:11:09;3.63;;;1.83;;
30020;SDS011;16861;52.294;7.760;2023-05-14T13:13:35;2.63;;;1.35;;
30020;SDS011;16861;52.294;7.760;2023-05-14T13:16:02;1.92;;;1.40;;
30020;SDS011;16861;52.294;7.760;2023-05-14T13:18:29;2.30;;;1.48;;
30020;SDS011;16861;52.294;7.760;2023-05-14T13:20:55;2.25;;;1.25;;
30020;SDS011;16861;52.294;7.760;2023-05-14T13:23:22;2.72;;;1.35;;
30020;SDS011;16861;52.294;7.760;2023-05-14T13:25:49;1.70;;;1.30;;
30020;SDS011;16861;52.294;7.760;2023-05-14T13:28:16;1.30;;;1.20;;
30020;SDS011;16861;52.294;7.760;2023-05-14T13:30:44;1.83;;;1.30;;
30020;SDS011;16861;52.294;7.760;2023-05-14T13:33:28;4.95;;;1.30;;
30020;SDS011;16861;52.294;7.760;2023-05-14T13:35:55;1.48;;;1.30;;
30020;SDS011;16861;52.294;7.760;2023-05-14T13:38:22;1.83;;;1.17;;
30020;SDS011;16861;52.294;7.760;2023-05-14T13:40:48;1.40;;;1.25;;
30020;SDS011;16861;52.294;7.760;2023-05-14T13:43:15;1.73;;;1.45;;
30020;SDS011;16861;52.294;7.760;2023-05-14T13:45:42;2.08;;;1.10;;
30020;SDS011;16861;52.294;7.760;2023-05-14T13:48:08;1.45;;;1.20;;
30020;SDS011;16861;52.294;7.760;2023-05-14T13:50:35;2.75;;;1.15;;
30020;SDS011;16861;52.294;7.760;2023-05-14T13:53:01;1.40;;;1.30;;
30020;SDS011;16861;52.294;7.760;2023-05-14T13:55:28;4.40;;;1.75;;
30020;SDS011;16861;52.294;7.760;2023-05-14T13:57:54;3.25;;;1.30;;
30020;SDS011;16861;52.294;7.760;2023-05-14T14:00:21;2.88;;;1.25;;
30020;SDS011;16861;52.294;7.760;2023-05-14T14:02:48;1.48;;;1.33;;
30020;SDS011;16861;52.294;7.760;2023-05-14T14:05:14;1.33;;;1.23;;
30020;SDS011;16861;52.294;7.760;2023-05-14T14:07:41;1.65;;;1.38;;
30020;SDS011;16861;52.294;7.760;2023-05-14T14:10:08;2.67;;;1.48;;
30020;SDS011;16861;52.294;7.760;2023-05-14T14:12:35;1.67;;;1.10;;
30020;SDS011;16861;52.294;7.760;2023-05-14T14:15:02;1.70;;;1.35;;
30020;SDS011;16861;52.294;7.760;2023-05-14T14:17:29;2.30;;;1.10;;
30020;SDS011;16861;52.294;7.760;2023-05-14T14:19:55;1.17;;;1.08;;
30020;SDS011;16861;52.294;7.760;2023-05-14T14:22:22;1.58;;;1.13;;
30020;SDS011;16861;52.294;7.760;2023-05-14T14:24:54;4.00;;;1.20;;
30020;SDS011;16861;52.294;7.760;2023-05-14T14:27:20;1.67;;;1.20;;
30020;SDS011;16861;52.294;7.760;2023-05-14T14:29:47;1.25;;;1.10;;
30020;SDS011;16861;52.294;7.760;2023-05-14T14:32:14;1.70;;;1.40;;
30020;SDS011;16861;52.294;7.760;2023-05-14T14:34:40;1.40;;;1.30;;
30020;SDS011;16861;52.294;7.760;2023-05-14T14:37:07;1.60;;;1.30;;
30020;SDS011;16861;52.294;7.760;2023-05-14T14:39:34;2.40;;;1.20;;
30020;SDS011;16861;52.294;7.760;2023-05-14T14:42:00;1.55;;;1.35;;
30020;SDS011;16861;52.294;7.760;2023-05-14T14:44:27;3.55;;;1.27;;
30020;SDS011;16861;52.294;7.760;2023-05-14T14:46:54;1.27;;;1.15;;
30020;SDS011;16861;52.294;7.760;2023-05-14T14:49:21;2.95;;;1.35;;
30020;SDS011;16861;52.294;7.760;2023-05-14T14:51:48;1.42;;;1.27;;
30020;SDS011;16861;52.294;7.760;2023-05-14T14:54:14;2.38;;;1.50;;
30020;SDS011;16861;52.294;7.760;2023-05-14T14:56:41;1.88;;;1.40;;
30020;SDS011;16861;52.294;7.760;2023-05-14T14:59:08;1.85;;;1.48;;
30020;SDS011;16861;52.294;7.760;2023-05-14T15:01:35;1.65;;;1.33;;
30020;SDS011;16861;52.294;7.760;2023-05-14T15:04:01;3.13;;;1.50;;
30020;SDS011;16861;52.294;7.760;2023-05-14T15:06:28;2.25;;;1.35;;
30020;SDS011;16861;52.294;7.760;2023-05-14T15:08:54;2.17;;;1.30;;
30020;SDS011;16861;52.294;7.760;2023-05-14T15:11:21;1.05;;;1.05;;
30020;SDS011;16861;52.294;7.760;2023-05-14T15:13:48;1.92;;;1.45;;
30020;SDS011;16861;52.294;7.760;2023-05-14T15:16:14;3.72;;;1.42;;
30020;SDS011;16861;52.294;7.760;2023-05-14T15:18:41;2.08;;;1.10;;
30020;SDS011;16861;52.294;7.760;2023-05-14T15:21:07;3.97;;;1.45;;
30020;SDS011;16861;52.294;7.760;2023-05-14T15:23:34;1.52;;;1.42;;
30020;SDS011;16861;52.294;7.760;2023-05-14T15:26:01;3.25;;;1.70;;
30020;SDS011;16861;52.294;7.760;2023-05-14T15:28:27;1.17;;;1.08;;
30020;SDS011;16861;52.294;7.760;2023-05-14T15:30:54;4.85;;;1.40;;
30020;SDS011;16861;52.294;7.760;2023-05-14T15:33:20;1.30;;;1.20;;
30020;SDS011;16861;52.294;7.760;2023-05-14T15:35:47;1.83;;;1.52;;
30020;SDS011;16861;52.294;7.760;2023-05-14T15:38:13;1.85;;;1.40;;
30020;SDS011;16861;52.294;7.760;2023-05-14T15:40:42;1.35;;;1.20;;